Time;durP1;ratioP1;P1;durP2;ratioP2;P2;SDS_P1;SDS_P2;PMS_P1;PMS_P2;Temp;Humidity;BMP_temperature;BMP_pressure;BME280_temperature;BME280_humidity;BME280_pressure;Samples;Min_cycle;Max_cycle;Signal;HPM_P1;HPM_P2
2022/05/07 00:00:35;;;;;;;8.63;5.07;;;;;;;17.77;50.20;99047.53;5073924;28;20044;-49
2022/05/07 00:03:00;;;;;;;7.38;4.47;;;;;;;17.68;50.39;99048.97;5073933;28;20315;-49
2022/05/07 00:05:26;;;;;;;11.63;4.72;;;;;;;17.55;50.86;99045.56;5073757;28;20032;-49
2022/05/07 00:07:52;;;;;;;5.55;5.00;;;;;;;17.49;50.90;99041.19;5073786;28;20027;-50
2022/05/07 00:10:17;;;;;;;15.40;5.75;;;;;;;17.40;51.17;99039.16;5073706;28;20032;-49
2022/05/07 00:12:43;;;;;;;8.73;5.00;;;;;;;17.29;51.62;99038.94;5073705;28;20333;-49
2022/05/07 00:15:09;;;;;;;8.45;5.00;;;;;;;17.25;51.58;99034.34;5073598;28;20071;-49
2022/05/07 00:20:19;;;;;;;8.82;5.82;;;;;;;17.19;52.02;99044.06;5073555;28;20568;-49
2022/05/07 00:22:45;;;;;;;5.80;4.93;;;;;;;17.18;51.90;99045.06;5073468;28;20021;-48
2022/05/07 00:25:11;;;;;;;11.50;6.10;;;;;;;17.13;51.88;99037.03;5073452;28;20031;-49
2022/05/07 00:27:38;;;;;;;7.53;5.22;;;;;;;17.05;52.13;99032.91;5073389;28;20081;-48
2022/05/07 00:30:05;;;;;;;10.70;5.35;;;;;;;16.93;52.13;99038.22;5072944;28;20099;-49
2022/05/07 00:32:31;;;;;;;7.53;5.07;;;;;;;16.85;52.65;99030.63;5073300;28;20036;-49
2022/05/07 00:34:56;;;;;;;6.65;4.70;;;;;;;16.77;52.65;99038.91;5073540;28;20398;-49
2022/05/07 00:37:23;;;;;;;8.60;5.15;;;;;;;16.71;52.83;99040.63;5071862;28;20081;-49
2022/05/07 00:39:50;;;;;;;12.20;6.35;;;;;;;16.68;52.81;99027.03;5073075;28;20032;-49
2022/05/07 00:42:16;;;;;;;12.93;5.88;;;;;;;16.65;53.00;99027.50;5073022;28;20031;-49
2022/05/07 00:44:42;;;;;;;5.88;4.80;;;;;;;16.60;53.10;99027.38;5073044;28;20067;-49
2022/05/07 00:47:22;;;;;;;9.38;5.50;;;;;;;16.59;53.41;99021.28;5072981;28;20107;-49
2022/05/07 00:49:51;;;;;;;10.02;5.65;;;;;;;16.49;53.55;99015.75;5073267;28;20063;-50
2022/05/07 00:52:20;;;;;;;10.57;5.65;;;;;;;16.24;53.85;99019.44;5072840;28;20394;-50
2022/05/07 00:54:47;;;;;;;13.55;5.82;;;;;;;16.11;54.52;99023.09;5072817;28;20119;-49
2022/05/07 00:57:14;;;;;;;18.02;6.68;;;;;;;16.07;54.52;99024.56;5072777;28;20107;-49
2022/05/07 00:59:41;;;;;;;8.98;5.75;;;;;;;15.92;54.70;99021.56;5072678;28;20024;-50
2022/05/07 01:02:07;;;;;;;16.65;5.88;;;;;;;15.72;55.19;99020.00;5072662;28;20047;-49
2022/05/07 01:04:32;;;;;;;8.35;6.10;;;;;;;15.63;55.59;99017.88;5072653;28;20021;-50
2022/05/07 01:07:01;;;;;;;9.60;6.10;;;;;;;15.67;55.69;99021.69;5072533;28;20445;-50
2022/05/07 01:09:27;;;;;;;12.05;5.80;;;;;;;15.59;55.75;99017.50;5072231;28;20099;-50
2022/05/07 01:11:53;;;;;;;12.95;5.63;;;;;;;15.53;56.04;99018.41;5072513;28;20465;-50
2022/05/07 01:14:18;;;;;;;9.38;5.95;;;;;;;15.55;56.11;99017.16;5072490;28;20111;-50
2022/05/07 01:16:44;;;;;;;12.88;6.10;;;;;;;15.57;56.12;99020.41;5072437;28;20509;-50
2022/05/07 01:19:10;;;;;;;15.35;7.22;;;;;;;15.54;56.33;99020.03;5070966;28;20082;-49
2022/05/07 01:21:35;;;;;;;8.73;6.10;;;;;;;15.48;56.26;99024.38;5072349;28;20020;-50
2022/05/07 01:24:02;;;;;;;11.75;6.28;;;;;;;15.46;56.90;99017.69;5071090;28;20031;-48
2022/05/07 01:26:27;;;;;;;9.70;6.00;;;;;;;15.43;56.89;99011.00;5072217;28;20103;-50
2022/05/07 01:29:07;;;;;;;7.25;5.82;;;;;;;15.34;57.42;99013.16;5072277;28;20040;-50
2022/05/07 01:31:32;;;;;;;7.15;6.20;;;;;;;15.29;57.46;99010.38;5071955;28;20040;-48
2022/05/07 01:33:58;;;;;;;8.63;5.95;;;;;;;15.23;57.46;99015.75;5072111;28;20028;-49
2022/05/07 01:36:24;;;;;;;10.18;5.85;;;;;;;15.22;57.57;99006.22;5072104;28;20405;-50
2022/05/07 01:38:50;;;;;;;11.10;5.70;;;;;;;15.22;57.39;99006.22;5072046;28;20059;-50
2022/05/07 01:41:15;;;;;;;8.77;5.90;;;;;;;15.20;57.82;99014.34;5070734;28;20389;-50
2022/05/07 01:43:41;;;;;;;17.88;6.43;;;;;;;15.22;57.90;99014.94;5072015;28;20021;-50
2022/05/07 01:48:09;;;;;;;10.82;6.47;;;;;;;15.18;57.83;99011.94;5071951;28;20553;-49
2022/05/07 01:48:53;;;;;;;16.38;6.88;;;;;;;15.13;57.78;99014.44;5071957;28;20028;-50
2022/05/07 01:51:18;;;;;;;13.27;6.88;;;;;;;15.05;57.93;99011.28;5070582;28;20036;-50
2022/05/07 01:53:44;;;;;;;9.10;6.78;;;;;;;14.91;58.20;99010.63;5071886;28;20031;-49
2022/05/07 01:56:10;;;;;;;8.25;6.60;;;;;;;14.80;58.52;99011.38;5070489;28;20428;-50
2022/05/07 01:58:35;;;;;;;16.75;6.90;;;;;;;14.69;59.07;99012.88;5071782;28;20025;-50
2022/05/07 02:01:01;;;;;;;9.70;6.32;;;;;;;14.62;58.98;99007.66;5071762;28;20025;-49
2022/05/07 02:03:27;;;;;;;11.93;6.32;;;;;;;14.60;59.25;99011.56;5071742;28;20020;-51
2022/05/07 02:05:52;;;;;;;16.08;7.45;;;;;;;14.62;59.60;99006.88;5071738;28;20036;-49
2022/05/07 02:08:18;;;;;;;11.60;7.00;;;;;;;14.66;59.27;99003.56;5070451;28;20082;-49
2022/05/07 02:10:44;;;;;;;12.55;7.28;;;;;;;14.75;59.09;99004.09;5071658;28;20494;-49
2022/05/07 02:13:09;;;;;;;10.02;6.45;;;;;;;14.76;59.41;99005.69;5070366;28;20052;-50
2022/05/07 02:15:35;;;;;;;9.82;5.95;;;;;;;14.77;59.15;99008.13;5071640;28;20074;-49
2022/05/07 02:18:01;;;;;;;14.02;6.57;;;;;;;14.75;59.20;99007.53;5071548;28;20017;-50
2022/05/07 02:20:26;;;;;;;11.23;6.82;;;;;;;14.77;59.13;99004.69;5073193;28;20021;-49
2022/05/07 02:22:55;;;;;;;11.77;6.40;;;;;;;14.83;58.98;99006.44;5074443;28;20034;-50
2022/05/07 02:25:25;;;;;;;11.15;6.78;;;;;;;14.87;59.05;99007.63;5074406;28;20029;-50
2022/05/07 02:27:50;;;;;;;12.07;6.53;;;;;;;14.89;58.84;99010.03;5075654;28;20044;-50
2022/05/07 02:30:19;;;;;;;8.77;6.30;;;;;;;14.88;58.87;99017.16;5075352;28;20502;-49
2022/05/07 02:32:46;;;;;;;6.75;6.05;;;;;;;14.87;58.76;99009.44;5075619;28;20020;-51
2022/05/07 02:35:12;;;;;;;10.32;7.45;;;;;;;14.83;58.75;99009.09;5075509;28;20032;-49
2022/05/07 02:37:38;;;;;;;12.25;7.18;;;;;;;14.86;59.25;99016.56;5075500;28;20032;-49
2022/05/07 02:40:04;;;;;;;13.82;7.22;;;;;;;14.90;58.63;99014.31;5075337;28;20504;-49
2022/05/07 02:42:33;;;;;;;11.80;6.20;;;;;;;14.81;58.65;99016.44;5075406;28;20032;-50
2022/05/07 02:45:00;;;;;;;8.82;6.72;;;;;;;14.66;59.02;99023.91;5075337;28;20110;-50
2022/05/07 02:47:25;;;;;;;13.65;6.22;;;;;;;14.55;59.27;99017.47;5075324;28;20027;-49
2022/05/07 02:49:51;;;;;;;12.73;6.93;;;;;;;14.47;59.64;99018.56;5075231;28;20029;-48
2022/05/07 02:52:17;;;;;;;24.38;7.43;;;;;;;14.43;59.84;99014.75;5073931;28;20023;-49
2022/05/07 02:54:43;;;;;;;10.10;6.32;;;;;;;14.39;60.29;99018.84;5075171;28;20028;-50
2022/05/07 02:57:09;;;;;;;12.98;7.05;;;;;;;14.40;59.95;99017.78;5075076;28;20020;-49
2022/05/07 02:59:35;;;;;;;10.73;6.45;;;;;;;14.36;59.96;99017.41;5074994;28;20063;-50
2022/05/07 03:02:00;;;;;;;13.23;7.15;;;;;;;14.29;60.17;99018.53;5073676;28;20048;-49
2022/05/07 03:04:26;;;;;;;16.00;11.85;;;;;;;14.24;60.55;99007.78;5074980;28;20024;-49
2022/05/07 03:06:53;;;;;;;9.48;6.03;;;;;;;14.24;60.41;99013.06;5074901;28;20024;-50
2022/05/07 03:09:18;;;;;;;9.52;8.00;;;;;;;14.21;60.24;99018.78;5074858;28;20039;-49
2022/05/07 03:11:44;;;;;;;17.35;7.55;;;;;;;14.08;60.75;99009.94;5074782;28;20016;-50
2022/05/07 03:14:10;;;;;;;13.48;6.93;;;;;;;14.05;60.89;99013.00;5074815;28;20082;-50
2022/05/07 03:16:38;;;;;;;9.18;6.75;;;;;;;14.09;60.97;99018.69;5073378;28;20506;-50
2022/05/07 03:19:04;;;;;;;8.35;7.20;;;;;;;14.14;60.92;99018.81;5074593;28;20027;-50
2022/05/07 03:21:30;;;;;;;14.43;7.10;;;;;;;14.22;60.67;99012.47;5074635;28;20027;-49
2022/05/07 03:23:56;;;;;;;7.95;7.15;;;;;;;14.22;60.91;99015.13;5074627;28;20024;-50
2022/05/07 03:26:22;;;;;;;13.68;6.82;;;;;;;14.23;60.95;99014.91;5073283;28;20027;-50
2022/05/07 03:28:48;;;;;;;14.57;7.82;;;;;;;14.21;60.80;99014.31;5073227;28;20032;-50
2022/05/07 03:31:15;;;;;;;10.65;6.95;;;;;;;14.24;60.71;99013.06;5073969;28;20040;-49
2022/05/07 03:33:41;;;;;;;8.95;7.07;;;;;;;14.19;60.73;99014.53;5073085;28;20028;-49
2022/05/07 03:36:07;;;;;;;10.05;7.20;;;;;;;14.13;60.63;99001.38;5074412;28;20031;-49
2022/05/07 03:38:32;;;;;;;12.20;7.07;;;;;;;13.98;61.04;99002.53;5074325;28;20021;-50
2022/05/07 03:40:58;;;;;;;14.40;7.03;;;;;;;13.91;61.28;99003.59;5074238;28;20032;-49
2022/05/07 03:43:24;;;;;;;16.58;8.30;;;;;;;13.80;61.70;99005.06;5072985;28;20027;-49
2022/05/07 03:45:50;;;;;;;15.23;7.30;;;;;;;13.78;61.54;99013.22;5072895;28;20486;-48
2022/05/07 03:48:16;;;;;;;15.05;7.70;;;;;;;13.75;61.53;99008.34;5072875;28;20025;-50
2022/05/07 03:50:42;;;;;;;12.57;7.63;;;;;;;13.77;61.86;98998.38;5072776;28;20024;-50
2022/05/07 03:55:51;;;;;;;16.25;9.27;;;;;;;13.76;61.66;99009.16;5074032;28;20085;-50
2022/05/07 03:58:17;;;;;;;17.75;8.68;;;;;;;13.73;61.67;99014.88;5073938;28;20016;-50
2022/05/07 04:00:44;;;;;;;10.13;7.38;;;;;;;13.76;61.81;99017.88;5073844;28;20025;-49
2022/05/07 04:03:10;;;;;;;10.52;7.70;;;;;;;13.81;61.34;99011.16;5072567;28;20032;-51
2022/05/07 04:05:36;;;;;;;11.63;7.10;;;;;;;13.78;61.64;99015.00;5073863;28;20546;-49
2022/05/07 04:08:02;;;;;;;12.88;7.50;;;;;;;13.74;61.69;99016.47;5072610;28;20048;-49
2022/05/07 04:10:28;;;;;;;12.65;6.75;;;;;;;13.74;61.66;99027.00;5073853;28;20112;-50
2022/05/07 04:12:54;;;;;;;13.73;7.55;;;;;;;13.77;61.98;99014.22;5072482;28;20020;-50
2022/05/07 04:15:20;;;;;;;16.50;7.78;;;;;;;13.80;61.97;99018.25;5073760;28;20169;-50
2022/05/07 04:17:46;;;;;;;13.57;8.40;;;;;;;13.80;61.98;99018.25;5073682;28;20100;-50
2022/05/07 04:20:12;;;;;;;13.45;7.68;;;;;;;13.77;61.83;99014.22;5073516;28;20568;-50
2022/05/07 04:22:38;;;;;;;12.52;7.97;;;;;;;13.77;61.97;99023.97;5072195;28;20112;-49
2022/05/07 04:25:09;;;;;;;11.50;7.40;;;;;;;13.68;61.92;99015.50;5073494;28;20056;-50
2022/05/07 04:27:35;;;;;;;11.07;7.22;;;;;;;13.47;62.09;99021.88;5073443;28;20086;-49
2022/05/07 04:30:00;;;;;;;16.17;8.32;;;;;;;13.33;62.79;99020.34;5073110;28;20485;-50
2022/05/07 04:32:27;;;;;;;10.20;7.57;;;;;;;13.35;63.08;99024.38;5073435;28;20478;-50
2022/05/07 04:34:55;;;;;;;19.98;11.52;;;;;;;13.45;62.72;99017.84;5073239;28;20097;-50
2022/05/07 04:37:21;;;;;;;10.25;7.45;;;;;;;13.54;62.75;99017.41;5073297;28;20048;-49
2022/05/07 04:39:47;;;;;;;14.38;6.88;;;;;;;13.67;62.42;99021.78;5071783;28;20025;-50
2022/05/07 04:42:14;;;;;;;33.45;19.73;;;;;;;13.77;62.35;99026.59;5072766;28;20090;-50
2022/05/07 04:44:40;;;;;;;15.68;8.57;;;;;;;13.67;61.88;99029.69;5072734;28;20048;-49
2022/05/07 04:47:06;;;;;;;10.38;7.78;;;;;;;13.59;62.18;99024.69;5073043;28;20522;-49
2022/05/07 04:49:32;;;;;;;17.67;7.45;;;;;;;13.61;62.53;99022.63;5073017;28;20081;-49
2022/05/07 04:51:59;;;;;;;12.23;6.78;;;;;;;14.24;61.64;99028.91;5072892;28;20033;-50
2022/05/07 04:54:25;;;;;;;14.85;7.32;;;;;;;15.04;59.37;99025.53;5071627;28;20013;-48
2022/05/07 04:56:52;;;;;;;17.23;15.70;;;;;;;15.55;57.10;99029.56;5072823;28;20093;-49
2022/05/07 04:59:19;;;;;;;14.70;9.25;;;;;;;15.67;56.26;99029.63;5072787;28;20500;-49
2022/05/07 05:01:46;;;;;;;34.95;15.68;;;;;;;16.16;55.83;99033.81;5072709;28;20025;-48
2022/05/07 05:04:12;;;;;;;27.35;15.20;;;;;;;16.67;54.44;99033.38;5071373;28;20387;-50
2022/05/07 05:06:39;;;;;;;11.93;7.05;;;;;;;16.86;52.42;99032.25;5072590;28;20506;-49
2022/05/07 05:09:06;;;;;;;32.88;16.17;;;;;;;17.19;51.68;99032.66;5072619;28;20024;-49
2022/05/07 05:11:33;;;;;;;11.15;7.47;;;;;;;17.48;50.27;99036.91;5088358;28;20024;-49
2022/05/07 05:13:59;;;;;;;10.60;7.97;;;;;;;17.30;50.50;99032.59;5072483;28;20039;-50
2022/05/07 05:16:25;;;;;;;22.27;12.45;;;;;;;17.15;51.23;99034.94;5072443;28;20558;-50
2022/05/07 05:18:51;;;;;;;10.70;6.30;;;;;;;17.21;50.58;99039.31;5071010;28;20039;-50
2022/05/07 05:21:17;;;;;;;11.13;8.80;;;;;;;17.42;50.61;99037.06;5072344;28;20103;-50
2022/05/07 05:23:46;;;;;;;9.18;6.20;;;;;;;17.67;49.56;99042.84;5072303;28;20419;-49
2022/05/07 05:26:13;;;;;;;10.57;7.85;;;;;;;17.78;49.36;99047.28;5072267;28;20414;-50
2022/05/07 05:28:40;;;;;;;11.63;6.53;;;;;;;17.99;48.98;99044.22;5072248;28;20028;-49
2022/05/07 05:31:06;;;;;;;14.25;6.50;;;;;;;18.45;47.97;99043.13;5070565;28;20127;-49
2022/05/07 05:33:32;;;;;;;9.27;6.28;;;;;;;19.42;46.13;99034.78;5072147;28;20028;-49
2022/05/07 05:35:58;;;;;;;47.70;23.35;;;;;;;20.26;45.41;99028.16;5072134;28;20025;-49
2022/05/07 05:38:24;;;;;;;7.28;5.95;;;;;;;21.08;42.56;99028.66;5087664;28;20488;-50
2022/05/07 05:40:50;;;;;;;10.77;6.85;;;;;;;21.40;41.98;99033.84;5072068;28;20017;-50
2022/05/07 05:43:17;;;;;;;7.75;6.20;;;;;;;21.46;41.00;99038.16;5072096;28;20024;-50
2022/05/07 05:45:43;;;;;;;8.40;5.93;;;;;;;22.02;40.80;99037.44;5072017;28;20107;-49
2022/05/07 05:48:09;;;;;;;11.73;5.95;;;;;;;23.06;39.03;99039.75;5071958;28;20056;-50
2022/05/07 05:50:35;;;;;;;16.17;6.13;;;;;;;23.99;37.71;99040.06;5071897;28;20445;-50
2022/05/07 05:53:01;;;;;;;9.48;6.05;;;;;;;24.84;36.48;99037.94;5071929;28;20020;-50
2022/05/07 05:55:27;;;;;;;11.00;5.80;;;;;;;25.39;35.24;99043.72;5071794;28;20395;-50
2022/05/07 05:57:52;;;;;;;12.00;5.28;;;;;;;25.70;34.22;99044.13;5071825;28;20024;-50
2022/05/07 06:00:19;;;;;;;10.73;5.20;;;;;;;25.92;33.57;99040.06;5071701;28;20571;-50
2022/05/07 06:02:45;;;;;;;13.50;5.00;;;;;;;26.10;33.14;99036.53;5070469;28;20458;-50
2022/05/07 06:05:12;;;;;;;10.85;5.70;;;;;;;26.50;32.53;99046.88;5071786;28;20017;-50
2022/05/07 06:07:38;;;;;;;7.82;5.22;;;;;;;26.88;31.85;99042.19;5070434;28;20035;-50
2022/05/07 06:10:05;;;;;;;12.98;5.18;;;;;;;27.10;31.04;99036.09;5071736;28;20024;-51
2022/05/07 06:12:31;;;;;;;5.75;4.80;;;;;;;27.22;31.21;99035.53;5070368;28;20093;-50
2022/05/07 06:14:57;;;;;;;10.57;5.28;;;;;;;27.47;30.19;99038.84;5071672;28;20020;-51
2022/05/07 06:17:23;;;;;;;8.15;5.95;;;;;;;27.44;30.36;99037.53;5070316;28;20028;-50
2022/05/07 06:19:49;;;;;;;9.40;5.00;;;;;;;27.51;30.20;99037.13;5070236;28;20020;-50
2022/05/07 06:22:15;;;;;;;11.15;6.13;;;;;;;27.42;30.10;99047.03;5071638;28;20032;-50
2022/05/07 06:27:28;;;;;;;8.60;5.43;;;;;;;28.20;29.29;99038.78;5071627;28;20040;-50
2022/05/07 06:29:58;;;;;;;15.68;5.55;;;;;;;28.73;28.89;99045.25;5071247;28;20154;-50
2022/05/07 06:32:31;;;;;;;12.25;6.45;;;;;;;28.91;27.91;99038.78;5071528;28;20029;-51
2022/05/07 06:34:56;;;;;;;7.38;5.10;;;;;;;29.35;27.73;99038.94;5070542;28;20047;-51
2022/05/07 06:37:22;;;;;;;10.63;4.45;;;;;;;29.71;26.84;99040.53;5071358;28;20020;-51
2022/05/07 06:39:48;;;;;;;10.43;4.65;;;;;;;30.03;26.70;99041.97;5070096;28;20414;-51
2022/05/07 06:42:15;;;;;;;9.15;5.22;;;;;;;30.11;26.54;99040.38;5071433;28;20020;-50
2022/05/07 06:44:42;;;;;;;12.52;4.63;;;;;;;29.53;27.12;99037.81;5071398;28;20398;-51
2022/05/07 06:47:07;;;;;;;11.75;5.07;;;;;;;29.30;27.60;99041.78;5071371;28;20520;-50
2022/05/07 06:49:33;;;;;;;10.13;4.95;;;;;;;29.46;27.23;99042.94;5071366;28;20025;-50
2022/05/07 06:51:59;;;;;;;6.95;4.80;;;;;;;29.57;26.68;99036.06;5070024;28;20498;-50
2022/05/07 06:54:24;;;;;;;6.57;5.20;;;;;;;29.28;26.62;99045.59;5069991;28;20028;-50
2022/05/07 06:56:50;;;;;;;5.28;4.78;;;;;;;28.65;27.70;99046.81;5071274;28;20039;-50
2022/05/07 06:59:16;;;;;;;17.55;7.97;;;;;;;28.63;28.13;99052.53;5071426;28;20118;-50
2022/05/07 07:01:42;;;;;;;26.15;11.23;;;;;;;28.87;28.02;99048.63;5071206;28;20023;-50
2022/05/07 07:04:08;;;;;;;12.70;7.40;;;;;;;29.09;27.61;99043.13;5071261;28;20490;-50
2022/05/07 07:06:33;;;;;;;57.90;21.38;;;;;;;29.78;26.74;99036.28;5072714;28;20494;-51
2022/05/07 07:09:00;;;;;;;10.70;6.82;;;;;;;30.29;26.36;99044.63;5074985;28;20486;-51
2022/05/07 07:11:25;;;;;;;21.30;8.60;;;;;;;30.78;25.56;99039.69;5073525;28;20028;-51
2022/05/07 07:13:51;;;;;;;7.32;5.25;;;;;;;31.00;25.22;99037.84;5074825;28;20022;-51
2022/05/07 07:16:18;;;;;;;11.25;5.82;;;;;;;31.09;25.19;99035.09;5073463;28;20024;-51
2022/05/07 07:18:44;;;;;;;10.80;6.07;;;;;;;30.96;25.41;99035.00;5074675;28;20020;-52
2022/05/07 07:21:11;;;;;;;6.97;4.63;;;;;;;30.68;24.94;99034.63;5073312;28;20028;-52
2022/05/07 07:23:37;;;;;;;7.97;4.75;;;;;;;30.72;25.38;99035.56;5073345;28;20062;-51
2022/05/07 07:26:04;;;;;;;8.43;4.70;;;;;;;31.08;25.12;99036.22;5074576;28;20622;-51
2022/05/07 07:28:31;;;;;;;9.63;4.45;;;;;;;31.47;24.74;99036.94;5074539;28;20024;-52
2022/05/07 07:30:58;;;;;;;7.32;4.28;;;;;;;32.22;23.76;99036.94;5074261;28;20044;-52
2022/05/07 07:33:24;;;;;;;6.78;3.95;;;;;;;32.90;23.39;99028.31;5074469;28;20055;-51
2022/05/07 07:35:50;;;;;;;11.65;4.97;;;;;;;33.51;22.67;99032.06;5073130;28;20025;-51
2022/05/07 07:38:15;;;;;;;7.72;4.18;;;;;;;33.92;21.96;99024.66;5072936;28;20040;-50
2022/05/07 07:40:43;;;;;;;10.70;4.40;;;;;;;34.00;21.49;99023.72;5074330;28;20048;-51
2022/05/07 07:43:10;;;;;;;6.63;4.30;;;;;;;34.30;21.29;99018.69;5074313;28;20020;-52
2022/05/07 07:48:20;;;;;;;4.97;4.10;;;;;;;34.57;20.84;99029.84;5074506;28;20082;-51
2022/05/07 07:50:48;;;;;;;6.63;4.30;;;;;;;34.51;20.81;99029.34;5074206;28;20449;-51
2022/05/07 07:53:14;;;;;;;6.80;4.10;;;;;;;33.71;21.38;99033.03;5074134;28;20402;-52
2022/05/07 07:55:40;;;;;;;5.45;4.13;;;;;;;33.51;21.79;99032.84;5074041;28;20103;-52
2022/05/07 07:58:08;;;;;;;8.20;4.32;;;;;;;33.48;22.02;99038.97;5074036;28;20020;-51
2022/05/07 08:00:35;;;;;;;4.68;3.42;;;;;;;33.38;22.09;99031.28;5073855;28;20017;-50
2022/05/07 08:03:05;;;;;;;6.45;3.75;;;;;;;33.21;22.30;99035.88;5073914;28;20127;-51
2022/05/07 08:05:35;;;;;;;4.70;3.70;;;;;;;33.27;22.19;99033.72;5073883;28;20781;-51
2022/05/07 08:13:34;;;;;;;5.15;3.67;;;;;;;33.74;21.64;99037.78;5073844;28;20074;-51
2022/05/07 08:16:01;;;;;;;5.68;4.22;;;;;;;33.93;21.67;99034.44;5073687;28;20025;-52
2022/05/07 08:18:26;;;;;;;7.15;4.25;;;;;;;33.87;21.50;99025.72;5072507;28;20107;-51
2022/05/07 08:20:53;;;;;;;7.45;3.70;;;;;;;33.99;21.85;99025.66;5073592;28;20104;-51
2022/05/07 08:23:18;;;;;;;4.43;3.92;;;;;;;34.02;21.76;99030.38;5072207;28;20032;-51
2022/05/07 08:25:44;;;;;;;13.07;5.22;;;;;;;34.39;21.24;99024.75;5072207;28;20032;-52
2022/05/07 08:28:10;;;;;;;5.32;4.82;;;;;;;34.50;20.75;99024.22;5072099;28;20028;-51
2022/05/07 08:30:36;;;;;;;10.07;4.28;;;;;;;34.77;20.54;99030.72;5073335;28;20047;-51
2022/05/07 08:33:04;;;;;;;5.18;3.97;;;;;;;34.81;20.32;99028.88;5073375;28;20032;-51
2022/05/07 08:35:31;;;;;;;7.63;3.90;;;;;;;35.07;20.20;99022.84;5073322;28;20438;-51
2022/05/07 08:37:56;;;;;;;6.40;3.90;;;;;;;35.58;19.98;99024.72;5073247;28;20024;-51
2022/05/07 08:40:24;;;;;;;4.50;3.72;;;;;;;35.23;19.92;99028.28;5073097;28;20086;-51
2022/05/07 08:42:52;;;;;;;8.55;3.92;;;;;;;34.25;20.69;99021.69;5073352;28;20136;-51
2022/05/07 08:45:17;;;;;;;6.93;3.90;;;;;;;33.04;21.97;99031.47;5073064;28;20024;-51
2022/05/07 08:47:43;;;;;;;7.50;3.65;;;;;;;33.48;21.76;99027.31;5073036;28;20028;-51
2022/05/07 08:50:13;;;;;;;5.05;4.07;;;;;;;34.25;21.32;99021.69;5072948;28;20449;-51
2022/05/07 08:52:43;;;;;;;5.43;3.72;;;;;;;34.85;20.77;99015.31;5072940;28;20447;-50
2022/05/07 08:55:14;;;;;;;6.18;3.72;;;;;;;35.44;20.20;99016.22;5071571;28;20098;-51
2022/05/07 08:57:42;;;;;;;6.20;3.20;;;;;;;36.29;19.15;99016.31;5072824;28;20534;-51
2022/05/07 09:00:12;;;;;;;8.93;4.68;;;;;;;36.55;18.78;99005.41;5072699;28;20020;-52
2022/05/07 09:02:43;;;;;;;6.53;3.33;;;;;;;36.10;19.19;99008.91;5072847;28;20024;-51
2022/05/07 09:05:11;;;;;;;6.15;3.47;;;;;;;35.85;19.29;99005.75;5072846;28;20033;-51
2022/05/07 09:07:40;;;;;;;5.72;3.42;;;;;;;36.06;19.13;99003.41;5072758;28;20021;-51
2022/05/07 09:10:13;;;;;;;6.95;3.20;;;;;;;36.76;18.52;98995.97;5072642;28;20032;-51
2022/05/07 09:12:39;;;;;;;4.97;3.33;;;;;;;37.24;18.18;98990.78;5071355;28;20066;-52
2022/05/07 09:15:08;;;;;;;8.57;3.20;;;;;;;37.33;18.27;98988.56;5071137;28;20064;-50
2022/05/07 09:17:36;;;;;;;7.68;4.85;;;;;;;37.25;18.23;98995.13;5072756;28;20414;-51
2022/05/07 09:20:12;;;;;;;5.10;3.42;;;;;;;37.19;18.06;98999.34;5072346;28;20372;-51
2022/05/07 09:22:50;;;;;;;5.53;3.42;;;;;;;37.07;18.14;98996.81;5072345;28;20112;-52
2022/05/07 09:25:21;;;;;;;6.97;2.70;;;;;;;37.44;17.77;98999.63;5072292;28;20028;-51
2022/05/07 09:27:48;;;;;;;7.47;4.70;;;;;;;38.24;18.06;98998.56;5070964;28;20028;-51
2022/05/07 09:30:21;;;;;;;6.97;3.03;;;;;;;38.59;16.78;98989.81;5071710;28;20410;-52
2022/05/07 09:32:49;;;;;;;4.03;2.47;;;;;;;38.90;16.65;98987.69;5072311;28;20043;-50
2022/05/07 09:38:01;;;;;;;5.82;3.10;;;;;;;37.00;17.73;98989.28;5072484;28;20050;-51
2022/05/07 09:40:28;;;;;;;5.78;4.38;;;;;;;35.78;18.69;98987.31;5070705;28;20036;-51
2022/05/07 09:42:57;;;;;;;7.75;3.00;;;;;;;34.15;19.84;98989.50;5070783;28;20016;-50
2022/05/07 09:45:27;;;;;;;4.95;3.20;;;;;;;33.47;21.32;98984.91;5072242;28;20029;-51
2022/05/07 09:48:00;;;;;;;6.93;3.10;;;;;;;33.02;21.49;98983.97;5071999;28;20021;-51
2022/05/07 09:58:43;;;;;;;8.75;3.03;;;;;;;36.67;18.26;98971.63;5072079;28;20525;-51
2022/05/07 10:01:20;;;;;;;5.13;2.85;;;;;;;36.59;18.28;98965.25;5071782;28;20029;-51
2022/05/07 10:04:23;;;;;;;7.20;2.80;;;;;;;37.25;18.21;98961.47;5071879;28;20067;-51
2022/05/07 10:07:00;;;;;;;7.68;3.00;;;;;;;37.23;17.38;98967.34;5071807;28;20032;-52
2022/05/07 10:09:32;;;;;;;4.50;3.20;;;;;;;36.45;18.40;98956.81;5070532;28;20036;-51
2022/05/07 10:11:59;;;;;;;7.53;2.97;;;;;;;35.64;18.70;98957.75;5070417;28;20463;-51
2022/05/07 10:14:30;;;;;;;5.18;2.90;;;;;;;35.22;19.93;98965.91;5070392;28;20086;-51
2022/05/07 10:17:00;;;;;;;4.68;2.83;;;;;;;35.67;19.11;98961.72;5071761;28;20029;-51
2022/05/07 10:19:46;;;;;;;5.97;3.35;;;;;;;36.38;18.81;98960.25;5071646;28;20521;-51
2022/05/07 10:22:25;;;;;;;4.88;2.97;;;;;;;36.64;18.32;98952.44;5071653;28;20032;-51
2022/05/07 10:25:08;;;;;;;7.75;3.70;;;;;;;36.31;18.41;98951.94;5071662;28;20021;-51
2022/05/07 10:27:37;;;;;;;5.95;3.25;;;;;;;36.24;18.41;98951.00;5071733;28;20025;-51
2022/05/07 10:30:05;;;;;;;5.50;3.15;;;;;;;35.97;18.88;98945.47;5071266;28;20024;-51
2022/05/07 10:33:01;;;;;;;3.47;2.60;;;;;;;35.15;19.50;98942.75;5071592;28;20556;-50
2022/05/07 10:35:51;;;;;;;4.65;2.70;;;;;;;34.40;20.47;98943.78;5071515;28;20025;-50
2022/05/07 10:38:23;;;;;;;4.13;2.80;;;;;;;33.50;21.31;98937.94;5071538;28;20025;-51
2022/05/07 10:41:01;;;;;;;3.75;3.10;;;;;;;32.66;21.84;98931.25;5071928;28;20025;-51
2022/05/07 10:43:42;;;;;;;5.35;2.53;;;;;;;32.59;22.20;98925.59;5075479;28;20073;-51
2022/05/07 10:46:12;;;;;;;5.40;3.20;;;;;;;32.19;22.96;98932.47;5075397;28;20562;-51
2022/05/07 10:49:04;;;;;;;8.63;3.90;;;;;;;31.67;23.34;98926.78;5075463;28;20401;-50
2022/05/07 10:51:31;;;;;;;6.07;3.40;;;;;;;30.76;24.18;98932.75;5075298;28;20078;-50
2022/05/07 10:54:03;;;;;;;4.78;2.90;;;;;;;30.03;25.06;98929.06;5075296;28;20433;-51
2022/05/07 10:56:31;;;;;;;6.05;3.13;;;;;;;29.56;25.58;98928.19;5075245;28;20021;-50
2022/05/07 10:58:58;;;;;;;5.03;3.33;;;;;;;28.83;26.67;98910.69;5075067;28;20017;-50
2022/05/07 11:01:26;;;;;;;5.32;3.42;;;;;;;28.06;27.59;98926.31;5075069;28;20529;-49
2022/05/07 11:04:04;;;;;;;6.25;3.67;;;;;;;27.42;28.84;98923.81;5075010;28;20024;-49
2022/05/07 11:06:30;;;;;;;5.72;3.28;;;;;;;27.08;29.57;98927.81;5074959;28;20040;-50
2022/05/07 11:08:56;;;;;;;8.88;4.05;;;;;;;26.94;29.79;98918.16;5073590;28;20133;-50
2022/05/07 11:11:24;;;;;;;7.90;3.38;;;;;;;26.78;30.31;98921.16;5074922;28;20099;-49
2022/05/07 11:13:55;;;;;;;5.63;3.40;;;;;;;26.79;30.18;98920.09;5074819;28;20055;-50
2022/05/07 11:16:23;;;;;;;6.05;4.78;;;;;;;27.21;29.95;98904.63;5074781;28;20044;-50
2022/05/07 11:18:51;;;;;;;6.82;5.30;;;;;;;28.38;28.62;98899.28;5074971;28;20037;-50
2022/05/07 11:21:18;;;;;;;7.80;3.30;;;;;;;29.23;27.60;98897.06;5074716;28;20048;-50
2022/05/07 11:23:44;;;;;;;5.97;4.07;;;;;;;29.07;27.36;98904.03;5073345;28;20027;-48
2022/05/07 11:26:12;;;;;;;464.13;417.80;;;;;;;28.52;28.01;98901.91;5074578;28;20103;-50
2022/05/07 11:28:40;;;;;;;477.80;426.10;;;;;;;28.07;28.75;98895.53;5074609;28;20372;-50
2022/05/07 11:31:05;;;;;;;51.40;43.58;;;;;;;27.91;29.23;98888.94;5074276;28;20094;-49
2022/05/07 11:33:31;;;;;;;17.73;13.85;;;;;;;28.48;28.29;98888.97;5074539;28;20017;-50
2022/05/07 11:36:08;;;;;;;12.18;8.57;;;;;;;29.17;27.78;98884.03;5074469;28;20491;-50
2022/05/07 11:38:36;;;;;;;16.77;15.05;;;;;;;29.75;26.81;98879.19;5073079;28;20028;-50
2022/05/07 11:41:14;;;;;;;38.92;35.40;;;;;;;29.25;26.96;98886.72;5074284;28;20029;-49
2022/05/07 11:46:25;;;;;;;124.57;110.50;;;;;;;30.66;26.01;98868.91;5074593;28;20116;-50
2022/05/07 11:48:51;;;;;;;11.02;9.80;;;;;;;31.63;24.60;98872.41;5074268;28;20040;-48
2022/05/07 11:51:24;;;;;;;225.88;163.38;;;;;;;31.78;23.96;98870.97;5074135;28;20025;-48
2022/05/07 11:53:51;;;;;;;41.03;31.25;;;;;;;30.70;25.16;98858.97;5073963;28;20028;-50
2022/05/07 11:56:17;;;;;;;11.18;7.07;;;;;;;29.45;26.60;98865.53;5074403;28;20060;-49
2022/05/07 11:58:49;;;;;;;37.30;27.13;;;;;;;28.42;27.74;98859.75;5074012;28;20360;-49
2022/05/07 12:01:30;;;;;;;10.57;7.20;;;;;;;27.51;29.22;98872.69;5074083;28;20025;-50